createdAt,value
2018-11-20T00:01:04.355Z,83.60
2018-11-20T00:04:02.231Z,82.90
2018-11-20T00:07:06.283Z,82.70
2018-11-20T00:10:10.654Z,82.70
2018-11-20T00:13:19.417Z,82.80
2018-11-20T00:16:23.961Z,82.70
2018-11-20T00:19:35.585Z,82.80
2018-11-20T00:22:44.914Z,82.60
2018-11-20T00:25:59.658Z,82.40
2018-11-20T00:28:55.092Z,82.60
2018-11-20T00:32:03.850Z,82.70
2018-11-20T00:35:08.682Z,82.50
2018-11-20T00:38:04.531Z,82.40
2018-11-20T00:41:01.682Z,82.80
2018-11-20T00:44:13.877Z,82.50
2018-11-20T00:47:18.361Z,82.50
2018-11-20T00:50:23.995Z,82.20
2018-11-20T00:53:41.235Z,82.20
2018-11-20T00:56:56.823Z,82.40
2018-11-20T01:00:08.344Z,82.50
2018-11-20T01:03:13.589Z,82.70
2018-11-20T01:06:25.287Z,82.50
2018-11-20T01:09:43.185Z,82.60
2018-11-20T01:12:48.847Z,82.30
2018-11-20T01:16:07.214Z,82.60
2018-11-20T01:19:05.056Z,82.70
2018-11-20T01:22:11.101Z,83.10
2018-11-20T01:25:23.054Z,82.90
2018-11-20T01:28:27.683Z,82.90
2018-11-20T01:31:36.207Z,82.70
2018-11-20T01:34:56.959Z,82.80
2018-11-20T01:37:54.539Z,82.80
2018-11-20T01:40:52.343Z,83.10
2018-11-20T01:44:01.095Z,83.00
2018-11-20T01:46:59.978Z,82.70
2018-11-20T01:50:09.293Z,82.70
2018-11-20T01:53:15.499Z,82.70
2018-11-20T01:56:23.990Z,82.80
2018-11-20T01:59:22.155Z,82.80
2018-11-20T02:02:39.877Z,82.20
2018-11-20T02:05:37.744Z,82.40
2018-11-20T02:08:32.565Z,82.40
2018-11-20T02:11:40.572Z,82.40
2018-11-20T02:14:46.641Z,82.40
2018-11-20T02:17:48.182Z,82.40
2018-11-20T02:20:50.314Z,82.20
2018-11-20T02:23:54.934Z,82.40
2018-11-20T02:26:56.977Z,81.90
2018-11-20T02:30:06.858Z,81.40
2018-11-20T02:33:11.506Z,81.20
2018-11-20T02:36:23.432Z,81.30
2018-11-20T02:39:32.259Z,80.60
2018-11-20T02:42:43.983Z,80.70
2018-11-20T02:45:52.655Z,80.50
2018-11-20T02:49:16.507Z,80.30
2018-11-20T02:52:13.331Z,80.30
2018-11-20T02:55:18.405Z,79.80
2018-11-20T02:58:27.035Z,79.60
2018-11-20T03:01:37.240Z,79.80
2018-11-20T03:04:36.390Z,79.80
2018-11-20T03:07:31.548Z,79.50
2018-11-20T03:10:43.970Z,80.40
2018-11-20T03:13:49.643Z,79.70
2018-11-20T03:16:53.828Z,80.20
2018-11-20T03:19:54.010Z,80.00
2018-11-20T03:22:58.951Z,80.10
2018-11-20T03:26:07.700Z,79.90
2018-11-20T03:29:21.850Z,79.30
2018-11-20T03:32:30.079Z,79.00
2018-11-20T03:35:35.952Z,78.40
2018-11-20T03:38:54.353Z,78.70
2018-11-20T03:42:02.787Z,78.50
2018-11-20T03:45:07.284Z,78.30
2018-11-20T03:48:21.912Z,77.80
2018-11-20T03:51:27.862Z,77.90
2018-11-20T03:54:24.140Z,77.60
2018-11-20T03:57:28.692Z,77.60
2018-11-20T04:00:37.767Z,77.60
2018-11-20T04:03:40.256Z,78.50
2018-11-20T04:06:44.413Z,77.60
2018-11-20T04:09:40.148Z,77.80
2018-11-20T04:12:45.960Z,77.80
2018-11-20T04:16:07.528Z,77.60
2018-11-20T04:19:14.953Z,77.60
2018-11-20T04:22:31.166Z,77.70
2018-11-20T04:25:35.409Z,76.90
2018-11-20T04:28:43.633Z,76.40
2018-11-20T04:32:02.701Z,75.90
2018-11-20T04:35:09.287Z,75.50
2018-11-20T04:38:02.243Z,75.50
2018-11-20T04:41:10.024Z,75.50
2018-11-20T04:44:09.963Z,75.10
2018-11-20T04:47:13.776Z,75.40
2018-11-20T04:50:09.525Z,75.20
2018-11-20T04:53:14.282Z,74.70
2018-11-20T04:56:19.748Z,75.40
2018-11-20T04:59:24.049Z,75.10
2018-11-20T05:02:37.713Z,74.50
2018-11-20T05:05:40.322Z,74.40
2018-11-20T05:08:34.752Z,73.70
2018-11-20T05:11:35.975Z,73.00
2018-11-20T05:14:34.284Z,72.60
2018-11-20T05:17:43.546Z,72.50
2018-11-20T05:20:48.259Z,72.60
2018-11-20T05:23:42.738Z,72.40
2018-11-20T05:26:47.447Z,72.30
2018-11-20T05:29:59.930Z,72.70
2018-11-20T05:33:07.172Z,73.20
2018-11-20T05:36:03.762Z,73.60
2018-11-20T05:39:12.370Z,73.70
2018-11-20T05:42:10.927Z,73.50
2018-11-20T05:45:14.753Z,73.60
2018-11-20T05:48:19.612Z,73.70
2018-11-20T05:51:25.380Z,74.20
2018-11-20T05:54:31.260Z,74.20
2018-11-20T05:57:26.511Z,74.30
2018-11-20T06:00:19.927Z,74.00
2018-11-20T06:03:34.670Z,74.20
2018-11-20T06:06:52.653Z,74.30
2018-11-20T06:09:56.690Z,74.20
2018-11-20T06:13:02.323Z,74.30
2018-11-20T06:16:03.552Z,74.30
2018-11-20T06:19:03.170Z,74.30
2018-11-20T06:22:08.960Z,74.30
2018-11-20T06:25:13.518Z,74.30
2018-11-20T06:28:25.277Z,74.20
2018-11-20T06:31:25.894Z,74.20
2018-11-20T06:34:28.212Z,74.80
2018-11-20T06:37:21.327Z,74.70
2018-11-20T06:40:20.641Z,74.60
2018-11-20T06:43:22.079Z,74.50
2018-11-20T06:46:29.963Z,75.00
2018-11-20T06:49:32.697Z,75.40
2018-11-20T06:52:44.576Z,75.40
2018-11-20T06:55:53.114Z,75.50
2018-11-20T06:58:57.487Z,75.30
2018-11-20T07:02:03.590Z,75.80
2018-11-20T07:05:15.234Z,75.70
2018-11-20T07:08:16.092Z,75.90
2018-11-20T07:11:35.627Z,75.00
2018-11-20T07:14:42.965Z,75.00
2018-11-20T07:17:47.400Z,74.70
2018-11-20T07:21:01.983Z,75.30
2018-11-20T07:24:04.575Z,75.40
2018-11-20T07:27:01.499Z,75.00
2018-11-20T07:30:05.549Z,75.10
2018-11-20T07:33:22.376Z,75.30
2018-11-20T07:36:28.213Z,75.30
2018-11-20T07:39:34.299Z,75.90
2018-11-20T07:42:29.982Z,75.90
2018-11-20T07:45:34.511Z,76.30
2018-11-20T07:48:38.881Z,76.60
2018-11-20T07:51:43.593Z,76.90
2018-11-20T07:54:58.393Z,77.20
2018-11-20T07:58:02.478Z,77.10
2018-11-20T08:01:23.357Z,76.90
2018-11-20T08:04:30.998Z,77.00
2018-11-20T08:07:32.430Z,77.20
2018-11-20T08:10:25.848Z,76.80
2018-11-20T08:13:33.473Z,77.20
2018-11-20T08:16:40.986Z,77.30
2018-11-20T08:19:45.357Z,77.50
2018-11-20T08:22:46.370Z,77.30
2018-11-20T08:25:54.416Z,77.30
2018-11-20T08:28:58.414Z,77.40
2018-11-20T08:32:02.502Z,77.00
2018-11-20T08:35:14.700Z,77.20
2018-11-20T08:38:19.242Z,77.30
2018-11-20T08:41:23.223Z,77.60
2018-11-20T08:44:35.081Z,77.90
2018-11-20T08:47:41.158Z,77.70
2018-11-20T08:50:40.896Z,77.90
2018-11-20T08:53:54.078Z,78.00
2018-11-20T08:56:58.428Z,77.70
2018-11-20T09:00:10.137Z,78.10
2018-11-20T09:03:14.711Z,78.10
2018-11-20T09:06:32.930Z,78.20
2018-11-20T09:09:56.687Z,78.50
2018-11-20T09:13:05.387Z,78.10
2018-11-20T09:16:23.419Z,78.30
2018-11-20T09:19:29.467Z,78.30
2018-11-20T09:22:35.472Z,78.40
2018-11-20T09:25:39.807Z,78.20
2018-11-20T09:29:00.233Z,78.20
2018-11-20T09:32:06.194Z,78.20
2018-11-20T09:35:06.245Z,78.40
2018-11-20T09:38:07.144Z,78.20
2018-11-20T09:41:26.108Z,78.40
2018-11-20T09:44:57.732Z,78.20
2018-11-20T09:48:06.561Z,78.60
2018-11-20T09:51:11.062Z,78.70
2018-11-20T09:54:08.385Z,77.90
2018-11-20T09:57:25.079Z,78.40
2018-11-20T10:00:29.456Z,78.60
2018-11-20T10:03:24.801Z,78.60
2018-11-20T10:06:22.981Z,78.20
2018-11-20T10:09:27.434Z,77.70
2018-11-20T10:12:25.226Z,77.60
2018-11-20T10:15:31.233Z,77.70
2018-11-20T10:18:40.527Z,77.60
2018-11-20T10:21:48.741Z,77.60
2018-11-20T10:24:54.518Z,78.00
2018-11-20T10:28:15.216Z,77.90
2018-11-20T10:31:19.694Z,78.00
2018-11-20T10:34:24.065Z,77.60
2018-11-20T10:37:18.295Z,77.50
2018-11-20T10:40:25.228Z,77.50
2018-11-20T10:43:29.692Z,77.60
2018-11-20T10:46:38.641Z,77.30
2018-11-20T10:49:53.472Z,77.40
2018-11-20T10:53:05.168Z,77.60
2018-11-20T10:56:10.119Z,77.50
2018-11-20T10:59:14.440Z,77.60
2018-11-20T11:02:29.000Z,77.20
2018-11-20T11:05:49.043Z,77.60
2018-11-20T11:08:53.414Z,77.30
2018-11-20T11:12:17.492Z,77.50
2018-11-20T11:15:21.867Z,76.80
2018-11-20T11:18:39.696Z,76.80
2018-11-20T11:21:42.048Z,76.50
2018-11-20T11:24:46.352Z,76.70
2018-11-20T11:28:10.346Z,77.30
2018-11-20T11:31:26.191Z,76.00
2018-11-20T11:34:36.470Z,76.30
2018-11-20T11:37:40.659Z,76.30
2018-11-20T11:40:45.094Z,76.20
2018-11-20T11:43:39.640Z,75.80
2018-11-20T11:46:48.340Z,77.50
2018-11-20T11:49:56.930Z,76.00
2018-11-20T11:52:54.699Z,76.10
2018-11-20T11:56:03.547Z,81.50
2018-11-20T11:59:24.627Z,74.90
2018-11-20T12:05:40.832Z,76.10
2018-11-20T12:08:47.120Z,75.70
2018-11-20T12:11:51.817Z,74.90
2018-11-20T12:15:03.835Z,77.20
2018-11-20T12:17:59.920Z,76.60
2018-11-20T12:21:04.492Z,75.50
2018-11-20T12:23:59.374Z,77.90
2018-11-20T12:26:59.307Z,75.00
2018-11-20T12:30:01.615Z,75.10
2018-11-20T12:33:06.384Z,76.60
2018-11-20T12:36:12.304Z,75.60
2018-11-20T12:39:14.810Z,76.00
2018-11-20T12:42:26.412Z,76.50
2018-11-20T12:45:34.175Z,76.80
2018-11-20T12:48:35.027Z,77.60
2018-11-20T12:51:55.324Z,78.00
2018-11-20T12:55:04.751Z,77.70
2018-11-20T12:58:00.983Z,78.20
2018-11-20T13:01:05.120Z,78.70
2018-11-20T13:04:20.193Z,79.10
2018-11-20T13:07:25.026Z,79.30
2018-11-20T13:10:29.639Z,77.80
2018-11-20T13:13:31.864Z,78.30
2018-11-20T13:16:36.337Z,79.30
2018-11-20T13:19:42.039Z,78.50
2018-11-20T13:22:43.874Z,79.40
2018-11-20T13:25:41.847Z,77.90
2018-11-20T13:28:56.547Z,78.40
2018-11-20T13:32:00.819Z,78.20
2018-11-20T13:35:21.920Z,77.70
2018-11-20T13:38:39.940Z,78.30
2018-11-20T13:41:56.046Z,79.40
2018-11-20T13:44:57.291Z,80.50
2018-11-20T13:48:02.832Z,81.60
2018-11-20T13:51:17.989Z,82.20
2018-11-20T13:54:22.681Z,83.00
2018-11-20T13:57:20.446Z,82.10
2018-11-20T14:00:29.377Z,80.60
2018-11-20T14:03:34.639Z,81.10
2018-11-20T14:06:38.572Z,82.30
2018-11-20T14:09:43.258Z,79.60
2018-11-20T14:12:51.600Z,79.90
2018-11-20T14:15:50.907Z,79.10
2018-11-20T14:18:54.996Z,78.80
2018-11-20T14:21:55.909Z,78.40
2018-11-20T14:25:17.560Z,79.20
2018-11-20T14:28:16.234Z,78.10
2018-11-20T14:31:20.037Z,78.70
2018-11-20T14:34:18.251Z,78.70
2018-11-20T14:37:15.147Z,78.40
2018-11-20T14:40:19.596Z,78.70
2018-11-20T14:43:40.560Z,77.80
2018-11-20T14:46:44.756Z,78.70
2018-11-20T14:49:53.097Z,76.70
2018-11-20T14:52:58.610Z,77.60
2018-11-20T14:56:06.893Z,77.60
2018-11-20T14:59:15.399Z,78.20
2018-11-20T15:02:24.507Z,78.20
2018-11-20T15:05:30.458Z,78.80
2018-11-20T15:08:34.813Z,79.20
2018-11-20T15:11:38.903Z,78.30
2018-11-20T15:14:47.260Z,78.30
2018-11-20T15:18:08.255Z,78.10
2018-11-20T15:21:29.122Z,78.20
2018-11-20T15:24:36.812Z,78.20
2018-11-20T15:27:39.391Z,78.00
2018-11-20T15:30:41.116Z,79.20
2018-11-20T15:33:45.543Z,77.70
2018-11-20T15:36:49.742Z,78.00
2018-11-20T15:39:55.549Z,78.40
2018-11-20T15:42:50.853Z,78.50
2018-11-20T15:45:48.506Z,78.40
2018-11-20T15:48:44.725Z,78.90
2018-11-20T15:51:54.215Z,79.30
2018-11-20T15:55:08.941Z,79.00
2018-11-20T15:58:05.982Z,78.30
2018-11-20T16:01:10.541Z,78.90
2018-11-20T16:04:14.939Z,78.30
2018-11-20T16:07:19.195Z,80.20
2018-11-20T16:10:15.634Z,78.30
2018-11-20T16:13:20.671Z,77.50
2018-11-20T16:16:24.086Z,76.90
2018-11-20T16:19:28.250Z,77.10
2018-11-20T16:22:39.450Z,77.60
2018-11-20T16:25:48.071Z,77.50
2018-11-20T16:28:53.904Z,76.70
2018-11-20T16:31:53.733Z,77.20
2018-11-20T16:35:05.443Z,77.10
2018-11-20T16:38:10.000Z,77.60
2018-11-20T16:41:11.627Z,78.30
2018-11-20T16:44:20.427Z,78.20
2018-11-20T16:47:41.492Z,78.50
2018-11-20T16:50:47.296Z,78.10
2018-11-20T16:54:04.793Z,77.30
2018-11-20T16:57:00.295Z,76.60
2018-11-20T17:00:04.583Z,76.80
2018-11-20T17:03:08.700Z,76.70
2018-11-20T17:06:14.624Z,76.80
2018-11-20T17:09:19.862Z,76.80
2018-11-20T17:12:24.078Z,75.70
2018-11-20T17:15:26.556Z,76.60
2018-11-20T17:18:27.350Z,77.10
2018-11-20T17:21:48.314Z,77.30
2018-11-20T17:25:02.778Z,77.50
2018-11-20T17:27:56.957Z,77.80
2018-11-20T17:31:05.605Z,77.60
2018-11-20T17:35:00.528Z,78.10
2018-11-20T17:38:22.538Z,78.10
2018-11-20T17:41:32.158Z,77.70
2018-11-20T17:44:58.318Z,78.00
2018-11-20T17:48:17.494Z,77.70
2018-11-20T17:51:39.771Z,77.40
2018-11-20T17:55:02.794Z,77.70
2018-11-20T17:58:12.492Z,77.50
2018-11-20T18:01:42.309Z,77.70
2018-11-20T18:05:01.923Z,77.70
2018-11-20T18:08:24.593Z,77.90
2018-11-20T18:11:44.370Z,77.90
2018-11-20T18:14:54.132Z,77.90
2018-11-20T18:18:20.466Z,78.20
2018-11-20T18:21:21.383Z,78.30
2018-11-20T18:27:34.607Z,78.30
2018-11-20T18:31:01.343Z,78.50
2018-11-20T18:34:02.430Z,78.50
2018-11-20T18:37:10.765Z,78.50
2018-11-20T18:40:37.231Z,78.40
2018-11-20T18:44:02.583Z,78.50
2018-11-20T18:47:25.083Z,78.20
2018-11-20T18:50:44.147Z,78.40
2018-11-20T18:54:04.340Z,78.40
2018-11-20T18:57:26.609Z,78.50
2018-11-20T19:00:49.135Z,78.30
2018-11-20T19:04:09.349Z,78.50
2018-11-20T19:07:26.056Z,78.50
2018-11-20T19:10:45.177Z,78.60
2018-11-20T19:14:04.469Z,77.30
2018-11-20T19:17:26.583Z,77.40
2018-11-20T19:20:49.499Z,77.40
2018-11-20T19:24:12.968Z,77.20
2018-11-20T19:27:33.106Z,76.90
2018-11-20T19:30:53.697Z,76.40
2018-11-20T19:34:13.343Z,75.80
2018-11-20T19:37:29.396Z,75.40
2018-11-20T19:40:54.637Z,75.40
2018-11-20T19:44:13.877Z,75.60
2018-11-20T19:47:36.060Z,74.90
2018-11-20T19:50:59.050Z,75.00
2018-11-20T19:54:21.434Z,75.00
2018-11-20T19:57:44.372Z,74.70
2018-11-20T20:00:48.434Z,75.00
2018-11-20T20:04:08.306Z,74.80
2018-11-20T20:07:27.477Z,75.10
2018-11-20T20:10:50.667Z,74.70
2018-11-20T20:17:36.440Z,74.70
2018-11-20T20:23:47.900Z,74.80
2018-11-20T20:27:10.592Z,73.90
2018-11-20T20:30:30.008Z,74.50
2018-11-20T20:33:53.164Z,74.90
2018-11-20T20:37:12.726Z,75.10
2018-11-20T20:43:36.312Z,75.00
2018-11-20T20:46:55.572Z,74.40
2018-11-20T20:50:09.013Z,74.10
2018-11-20T20:56:31.987Z,74.50
2018-11-20T20:59:55.430Z,74.00
2018-11-20T21:03:02.039Z,74.60
2018-11-20T21:06:28.236Z,74.50
2018-11-20T21:09:47.911Z,74.70
2018-11-20T21:13:10.186Z,74.10
2018-11-20T21:16:29.221Z,74.50
2018-11-20T21:19:52.315Z,74.10
2018-11-20T21:23:17.483Z,74.10
2018-11-20T21:26:36.166Z,74.90
2018-11-20T21:29:55.752Z,74.40
2018-11-20T21:33:02.502Z,74.70
2018-11-20T21:36:28.921Z,75.10
2018-11-20T21:39:48.551Z,75.10
2018-11-20T21:43:08.050Z,75.00
2018-11-20T21:46:33.642Z,75.00
2018-11-20T21:49:53.017Z,75.10
2018-11-20T21:53:15.771Z,75.30
2018-11-20T21:56:22.354Z,75.30
2018-11-20T21:59:50.255Z,75.70
2018-11-20T22:03:10.134Z,75.30
2018-11-20T22:06:32.495Z,75.80
2018-11-20T22:10:00.624Z,75.70
2018-11-20T22:13:19.589Z,75.90
2018-11-20T22:16:42.547Z,75.70
2018-11-20T22:20:07.658Z,75.80
2018-11-20T22:23:26.773Z,75.80
2018-11-20T22:26:35.508Z,75.70
2018-11-20T22:29:54.412Z,75.80
2018-11-20T22:33:17.400Z,75.70
2018-11-20T22:36:36.804Z,76.00
2018-11-20T22:39:54.919Z,76.30
2018-11-20T22:46:18.670Z,75.80
2018-11-20T22:49:41.954Z,75.90
2018-11-20T22:52:58.822Z,75.90
2018-11-20T22:56:21.872Z,75.90
2018-11-20T22:59:44.630Z,75.90
2018-11-20T23:03:11.054Z,75.80
2018-11-20T23:06:29.660Z,75.80
2018-11-20T23:09:29.919Z,75.70
2018-11-20T23:12:20.629Z,75.70
2018-11-20T23:15:27.202Z,75.80
2018-11-20T23:18:27.201Z,75.90
2018-11-20T23:21:27.426Z,76.10
2018-11-20T23:24:30.298Z,76.20
2018-11-20T23:27:30.750Z,76.10
2018-11-20T23:30:30.385Z,76.30
2018-11-20T23:33:30.732Z,76.10
2018-11-20T23:36:30.714Z,76.40
2018-11-20T23:39:31.862Z,76.40
2018-11-20T23:42:34.763Z,76.40
2018-11-20T23:45:34.581Z,76.60
2018-11-20T23:48:34.906Z,77.00
2018-11-20T23:51:34.517Z,76.60
2018-11-20T23:54:34.625Z,76.60
2018-11-20T23:57:34.679Z,76.60
